Time;durP1;ratioP1;P1;durP2;ratioP2;P2;SDS_P1;SDS_P2;PMS_P1;PMS_P2;Temp;Humidity;BMP_temperature;BMP_pressure;BME280_temperature;BME280_humidity;BME280_pressure;Samples;Min_cycle;Max_cycle;Signal;HPM_P1;HPM_P2
2022/04/30 00:02:18;;;;;;;20.17;6.50;;;;;;;;;;5032319;28;20198;-69
2022/04/30 00:04:47;;;;;;;22.20;7.43;;;;;;;;;;5032360;28;20202;-70
2022/04/30 00:07:16;;;;;;;17.42;6.35;;;;;;;;;;5032098;28;20228;-70
2022/04/30 00:09:43;;;;;;;20.08;7.13;;;;;;;;;;5032226;28;20197;-70
2022/04/30 00:12:12;;;;;;;16.88;6.30;;;;;;;;;;5032050;28;20197;-70
2022/04/30 00:14:40;;;;;;;18.58;6.68;;;;;;;;;;5032499;28;20226;-69
2022/04/30 00:17:09;;;;;;;18.23;6.93;;;;;;;;;;5032336;28;20202;-69
2022/04/30 00:19:36;;;;;;;18.17;6.68;;;;;;;;;;5032084;28;20283;-69
2022/04/30 00:22:05;;;;;;;22.33;7.32;;;;;;;;;;5032002;28;20209;-69
2022/04/30 00:24:32;;;;;;;20.45;7.63;;;;;;;;;;5032122;28;20217;-69
2022/04/30 00:27:00;;;;;;;23.80;8.35;;;;;;;;;;5031772;28;20660;-70
2022/04/30 00:29:29;;;;;;;19.95;7.60;;;;;;;;;;5031628;28;20293;-70
2022/04/30 00:31:56;;;;;;;19.83;8.30;;;;;;;;;;5031931;28;20210;-70
2022/04/30 00:34:24;;;;;;;19.77;7.35;;;;;;;;;;5031843;28;20229;-69
2022/04/30 00:36:52;;;;;;;21.17;7.80;;;;;;;;;;5031984;28;20244;-69
2022/04/30 00:39:19;;;;;;;19.00;7.32;;;;;;;;;;5031777;28;20663;-70
2022/04/30 00:41:48;;;;;;;18.48;6.75;;;;;;;;;;5032276;28;20202;-69
2022/04/30 00:44:19;;;;;;;18.42;6.65;;;;;;;;;;5032139;28;20198;-69
2022/04/30 00:46:48;;;;;;;17.20;6.50;;;;;;;;;;5031872;28;20260;-70
2022/04/30 00:49:15;;;;;;;18.08;7.03;;;;;;;;;;5031549;28;20213;-69
2022/04/30 00:51:44;;;;;;;20.60;6.70;;;;;;;;;;5031912;28;20198;-69
2022/04/30 00:54:13;;;;;;;19.92;7.10;;;;;;;;;;5031471;28;20707;-69
2022/04/30 00:56:44;;;;;;;20.35;7.45;;;;;;;;;;5031594;28;20200;-69
2022/04/30 00:59:12;;;;;;;19.30;7.60;;;;;;;;;;5031350;28;20217;-70
2022/04/30 01:01:39;;;;;;;17.73;6.82;;;;;;;;;;5031724;28;20582;-69
2022/04/30 01:04:08;;;;;;;19.10;7.10;;;;;;;;;;5031707;28;20686;-69
2022/04/30 01:06:41;;;;;;;23.38;8.02;;;;;;;;;;5031591;28;20594;-69
2022/04/30 01:09:09;;;;;;;21.60;7.78;;;;;;;;;;5031549;28;20205;-69
2022/04/30 01:11:37;;;;;;;18.92;7.82;;;;;;;;;;5031656;28;20202;-69
2022/04/30 01:14:07;;;;;;;22.80;7.10;;;;;;;;;;5031462;28;20225;-69
2022/04/30 01:16:36;;;;;;;20.83;7.70;;;;;;;;;;5031589;28;20208;-69
2022/04/30 01:19:04;;;;;;;19.85;7.35;;;;;;;;;;5031310;28;20205;-69
2022/04/30 01:21:34;;;;;;;19.15;7.93;;;;;;;;;;5031455;28;20634;-69
2022/04/30 01:24:03;;;;;;;24.40;7.93;;;;;;;;;;5032061;28;20210;-69
2022/04/30 01:26:30;;;;;;;19.58;7.93;;;;;;;;;;5031278;28;20281;-69
2022/04/30 01:28:58;;;;;;;20.10;6.97;;;;;;;;;;5031345;28;20204;-69
2022/04/30 01:39:43;;;;;;;22.90;8.15;;;;;;;;;;5033907;28;20591;-70
2022/04/30 01:42:12;;;;;;;23.90;8.85;;;;;;;;;;5034818;28;20559;-69
2022/04/30 01:44:40;;;;;;;23.42;7.88;;;;;;;;;;5034982;28;20643;-69
2022/04/30 01:47:08;;;;;;;25.98;8.75;;;;;;;;;;5034871;28;20194;-69
2022/04/30 01:49:36;;;;;;;21.00;7.90;;;;;;;;;;5034574;28;20708;-69
2022/04/30 01:52:08;;;;;;;21.98;8.32;;;;;;;;;;5035041;28;20198;-69
2022/04/30 01:54:35;;;;;;;22.45;7.03;;;;;;;;;;5034442;28;20233;-69
2022/04/30 01:57:04;;;;;;;19.80;7.15;;;;;;;;;;5034663;28;20198;-69
2022/04/30 01:59:32;;;;;;;24.92;9.23;;;;;;;;;;5033974;28;20247;-70
2022/04/30 02:02:00;;;;;;;20.85;7.80;;;;;;;;;;5034374;28;20209;-69
2022/04/30 02:04:29;;;;;;;22.58;7.88;;;;;;;;;;5034512;28;20660;-69
2022/04/30 02:06:59;;;;;;;20.30;8.35;;;;;;;;;;5034279;28;20658;-69
2022/04/30 02:09:28;;;;;;;25.48;9.10;;;;;;;;;;5034217;28;20201;-70
2022/04/30 02:11:57;;;;;;;23.08;9.35;;;;;;;;;;5034167;28;20225;-69
2022/04/30 02:14:27;;;;;;;23.13;8.75;;;;;;;;;;5034343;28;20253;-69
2022/04/30 02:16:54;;;;;;;19.88;8.15;;;;;;;;;;5034338;28;20205;-69
2022/04/30 02:19:22;;;;;;;23.23;8.82;;;;;;;;;;5033754;28;20575;-69
2022/04/30 02:21:51;;;;;;;23.88;8.00;;;;;;;;;;5034483;28;20202;-69
2022/04/30 02:24:19;;;;;;;20.48;8.75;;;;;;;;;;5034105;28;20213;-69
2022/04/30 02:26:46;;;;;;;22.50;8.95;;;;;;;;;;5033900;28;20202;-69
2022/04/30 02:29:14;;;;;;;25.75;10.02;;;;;;;;;;5033633;28;20194;-69
2022/04/30 02:31:43;;;;;;;24.27;8.98;;;;;;;;;;5034183;28;20194;-69
2022/04/30 02:34:10;;;;;;;21.13;7.78;;;;;;;;;;5033666;28;20707;-69
2022/04/30 02:36:37;;;;;;;21.38;8.10;;;;;;;;;;5033720;28;20641;-69
2022/04/30 02:39:05;;;;;;;21.50;8.85;;;;;;;;;;5034130;28;20216;-69
2022/04/30 02:41:34;;;;;;;26.98;9.15;;;;;;;;;;5033410;28;20209;-69
2022/04/30 02:44:04;;;;;;;21.17;8.48;;;;;;;;;;5033798;28;20598;-69
2022/04/30 02:46:32;;;;;;;23.10;8.85;;;;;;;;;;5033543;28;20197;-69
2022/04/30 02:49:01;;;;;;;23.90;9.35;;;;;;;;;;5033701;28;20223;-69
2022/04/30 02:51:28;;;;;;;19.25;7.22;;;;;;;;;;5032300;28;20209;-69
2022/04/30 02:53:56;;;;;;;22.73;8.55;;;;;;;;;;5033451;28;20234;-69
2022/04/30 02:56:23;;;;;;;19.27;6.70;;;;;;;;;;5033405;28;20202;-69
2022/04/30 03:01:36;;;;;;;24.13;9.10;;;;;;;;;;5033446;28;20321;-69
2022/04/30 03:04:05;;;;;;;24.42;8.60;;;;;;;;;;5033186;28;20216;-69
2022/04/30 03:06:33;;;;;;;17.80;7.68;;;;;;;;;;5033281;28;20205;-69
2022/04/30 03:09:01;;;;;;;23.60;8.30;;;;;;;;;;5033017;28;20662;-69
2022/04/30 03:11:29;;;;;;;19.77;8.20;;;;;;;;;;5032891;28;20232;-69
2022/04/30 03:13:57;;;;;;;23.83;9.20;;;;;;;;;;5032922;28;20229;-69
2022/04/30 03:21:56;;;;;;;21.85;9.10;;;;;;;;;;5033147;28;20217;-69
2022/04/30 03:24:24;;;;;;;24.92;9.68;;;;;;;;;;5032866;28;20201;-69
2022/04/30 03:26:53;;;;;;;24.75;9.07;;;;;;;;;;5032777;28;20205;-69
2022/04/30 03:29:20;;;;;;;21.10;8.00;;;;;;;;;;5032711;28;20601;-69
2022/04/30 03:31:49;;;;;;;22.95;8.15;;;;;;;;;;5032684;28;20202;-69
2022/04/30 03:34:18;;;;;;;20.23;8.20;;;;;;;;;;5032524;28;20283;-69
2022/04/30 03:36:45;;;;;;;19.48;7.65;;;;;;;;;;5032686;28;20311;-69
2022/04/30 03:39:13;;;;;;;22.67;8.27;;;;;;;;;;5032524;28;20206;-70
2022/04/30 03:41:40;;;;;;;27.23;9.20;;;;;;;;;;5032862;28;20579;-69
2022/04/30 03:44:08;;;;;;;25.00;8.05;;;;;;;;;;5032630;28;20201;-69
2022/04/30 03:46:36;;;;;;;20.50;8.70;;;;;;;;;;5032484;28;20256;-69
2022/04/30 03:49:04;;;;;;;21.40;8.43;;;;;;;;;;5032319;28;20205;-69
2022/04/30 03:51:33;;;;;;;19.05;7.90;;;;;;;;;;5032103;28;20205;-69
2022/04/30 03:54:00;;;;;;;19.15;7.47;;;;;;;;;;5032472;28;20198;-69
2022/04/30 03:56:27;;;;;;;21.13;8.02;;;;;;;;;;5032290;28;20198;-69
2022/04/30 03:58:56;;;;;;;19.17;7.70;;;;;;;;;;5032423;28;20222;-69
2022/04/30 04:01:24;;;;;;;19.48;7.75;;;;;;;;;;5031779;28;20198;-70
2022/04/30 04:03:52;;;;;;;20.27;7.47;;;;;;;;;;5032335;28;20197;-70
2022/04/30 04:06:20;;;;;;;24.58;10.23;;;;;;;;;;5032380;28;20206;-69
2022/04/30 04:08:51;;;;;;;23.30;8.93;;;;;;;;;;5032367;28;20230;-70
2022/04/30 04:11:18;;;;;;;20.47;7.47;;;;;;;;;;5032188;28;20515;-70
2022/04/30 04:19:18;;;;;;;18.03;6.53;;;;;;;;;;5031965;28;20506;-70
2022/04/30 04:21:45;;;;;;;17.00;5.53;;;;;;;;;;5032158;28;20911;-70
2022/04/30 04:27:01;;;;;;;14.10;4.50;;;;;;;;;;5032054;28;20440;-70
2022/04/30 04:29:28;;;;;;;13.87;3.87;;;;;;;;;;5031945;28;20535;-70
2022/04/30 04:31:56;;;;;;;18.10;4.43;;;;;;;;;;5031780;28;20441;-69
2022/04/30 04:34:24;;;;;;;15.60;4.10;;;;;;;;;;5031848;28;21012;-70
2022/04/30 04:36:51;;;;;;;15.70;4.73;;;;;;;;;;5032081;28;20484;-70
2022/04/30 04:39:20;;;;;;;17.40;4.40;;;;;;;;;;5031502;28;20958;-70
2022/04/30 04:41:47;;;;;;;18.90;4.00;;;;;;;;;;5031763;28;20938;-70
2022/04/30 04:44:14;;;;;;;17.57;5.10;;;;;;;;;;5031849;28;20860;-69
2022/04/30 04:46:42;;;;;;;15.47;4.37;;;;;;;;;;5031753;28;20444;-70
2022/04/30 04:49:10;;;;;;;15.27;4.97;;;;;;;;;;5032015;28;20437;-70
2022/04/30 04:51:38;;;;;;;17.07;4.97;;;;;;;;;;5031677;28;20536;-70
2022/04/30 04:54:06;;;;;;;13.90;3.80;;;;;;;;;;5031549;28;20447;-70
2022/04/30 04:56:35;;;;;;;14.77;4.47;;;;;;;;;;5031583;28;20445;-70
2022/04/30 04:59:02;;;;;;;14.57;4.40;;;;;;;;;;5031312;28;20461;-70
2022/04/30 05:01:30;;;;;;;16.20;5.17;;;;;;;;;;5031402;28;20506;-70
2022/04/30 05:03:57;;;;;;;17.60;5.43;;;;;;;;;;5031677;28;20515;-70
2022/04/30 05:06:25;;;;;;;16.30;5.13;;;;;;;;;;5031826;28;20446;-71
2022/04/30 05:08:53;;;;;;;17.40;5.07;;;;;;;;;;5031751;28;20520;-70
2022/04/30 05:11:22;;;;;;;17.03;5.60;;;;;;;;;;5031227;28;20530;-71
2022/04/30 05:13:50;;;;;;;19.37;5.80;;;;;;;;;;5032626;28;20445;-71
2022/04/30 05:16:18;;;;;;;15.73;5.13;;;;;;;;;;5035274;28;20577;-70
2022/04/30 05:18:45;;;;;;;16.50;5.20;;;;;;;;;;5035228;28;20959;-71
2022/04/30 05:21:13;;;;;;;16.17;4.90;;;;;;;;;;5035190;28;20439;-70
2022/04/30 05:23:41;;;;;;;16.70;5.53;;;;;;;;;;5035091;28;20443;-70
2022/04/30 05:26:08;;;;;;;14.90;5.03;;;;;;;;;;5035120;28;20991;-70
2022/04/30 05:28:36;;;;;;;19.07;6.40;;;;;;;;;;5035135;28;20447;-71
2022/04/30 05:31:06;;;;;;;16.90;5.77;;;;;;;;;;5035095;28;20468;-71
2022/04/30 05:33:34;;;;;;;16.97;4.97;;;;;;;;;;5034824;28;20443;-71
2022/04/30 05:36:02;;;;;;;16.90;5.70;;;;;;;;;;5034898;28;20848;-71
2022/04/30 05:38:29;;;;;;;24.10;5.93;;;;;;;;;;5035189;28;20516;-71
2022/04/30 05:40:57;;;;;;;16.70;5.67;;;;;;;;;;5035023;28;20871;-71
2022/04/30 05:43:25;;;;;;;15.43;4.40;;;;;;;;;;5034581;28;20449;-71
2022/04/30 05:45:52;;;;;;;18.30;5.40;;;;;;;;;;5034706;28;20440;-71
2022/04/30 05:48:21;;;;;;;17.33;5.93;;;;;;;;;;5034686;28;20965;-71
2022/04/30 05:50:51;;;;;;;17.33;5.00;;;;;;;;;;5034641;28;20460;-71
2022/04/30 05:53:19;;;;;;;16.97;4.70;;;;;;;;;;5034374;28;20476;-71
2022/04/30 05:55:46;;;;;;;15.70;5.10;;;;;;;;;;5034768;28;20580;-71
2022/04/30 05:58:14;;;;;;;15.70;5.10;;;;;;;;;;5034490;28;20450;-71
2022/04/30 06:00:42;;;;;;;17.77;5.10;;;;;;;;;;5034085;28;20862;-71
2022/04/30 06:03:09;;;;;;;20.97;5.93;;;;;;;;;;5034419;28;20822;-71
2022/04/30 06:05:38;;;;;;;16.60;5.27;;;;;;;;;;5034723;28;20448;-71
2022/04/30 06:08:06;;;;;;;22.53;5.60;;;;;;;;;;5034332;28;20448;-71
2022/04/30 06:10:33;;;;;;;17.83;5.90;;;;;;;;;;5034343;28;20446;-71
2022/04/30 06:13:01;;;;;;;16.37;5.40;;;;;;;;;;5034343;28;20924;-72
2022/04/30 06:15:29;;;;;;;17.60;4.40;;;;;;;;;;5033931;28;20485;-71
2022/04/30 06:17:57;;;;;;;15.37;4.67;;;;;;;;;;5034698;28;20517;-71
2022/04/30 06:20:24;;;;;;;17.10;4.30;;;;;;;;;;5034349;28;20443;-71
2022/04/30 06:22:53;;;;;;;15.73;4.40;;;;;;;;;;5034038;28;20450;-72
2022/04/30 06:25:20;;;;;;;15.37;4.80;;;;;;;;;;5033520;28;20453;-71
2022/04/30 06:27:48;;;;;;;17.13;3.93;;;;;;;;;;5034790;28;20437;-71
2022/04/30 06:30:15;;;;;;;15.40;4.37;;;;;;;;;;5034034;28;20536;-71
2022/04/30 06:32:43;;;;;;;18.93;4.27;;;;;;;;;;5034436;28;20441;-71
2022/04/30 06:35:11;;;;;;;16.33;4.27;;;;;;;;;;5033427;28;20570;-71
2022/04/30 06:37:38;;;;;;;14.73;4.30;;;;;;;;;;5033416;28;20476;-71
2022/04/30 06:40:08;;;;;;;18.47;4.93;;;;;;;;;;5033854;28;20460;-72
2022/04/30 06:42:41;;;;;;;16.10;5.00;;;;;;;;;;5033926;28;20455;-71
2022/04/30 06:45:10;;;;;;;15.70;4.03;;;;;;;;;;5033594;28;20912;-71
2022/04/30 06:47:38;;;;;;;14.97;4.10;;;;;;;;;;5033662;28;20966;-71
2022/04/30 06:50:06;;;;;;;18.77;4.73;;;;;;;;;;5033526;28;20884;-71
2022/04/30 06:52:34;;;;;;;15.53;4.03;;;;;;;;;;5033622;28;20452;-70
2022/04/30 06:57:48;;;;;;;14.93;3.60;;;;;;;;;;5033853;28;20814;-71
2022/04/30 07:03:07;;;;;;;16.10;4.47;;;;;;;;;;5033576;28;20937;-71
2022/04/30 07:05:36;;;;;;;18.63;4.10;;;;;;;;;;5033100;28;20442;-71
2022/04/30 07:08:04;;;;;;;15.40;3.63;;;;;;;;;;5033350;28;20441;-71
2022/04/30 07:10:32;;;;;;;16.10;3.10;;;;;;;;;;5033122;28;20524;-71
2022/04/30 07:13:00;;;;;;;17.27;3.00;;;;;;;;;;5033244;28;20836;-70
2022/04/30 07:15:28;;;;;;;13.40;2.67;;;;;;;;;;5032704;28;20488;-71
2022/04/30 07:17:55;;;;;;;16.13;3.53;;;;;;;;;;5032970;28;20976;-71
2022/04/30 07:20:22;;;;;;;15.93;4.00;;;;;;;;;;5033044;28;20812;-71
2022/04/30 07:22:51;;;;;;;17.40;3.70;;;;;;;;;;5032947;28;20868;-71
2022/04/30 07:25:19;;;;;;;15.93;3.63;;;;;;;;;;5032648;28;20453;-71
2022/04/30 07:27:46;;;;;;;17.03;3.57;;;;;;;;;;5032874;28;20450;-71
2022/04/30 07:30:15;;;;;;;17.10;4.07;;;;;;;;;;5032754;28;20442;-72
2022/04/30 07:32:43;;;;;;;15.37;3.40;;;;;;;;;;5033014;28;20444;-71
2022/04/30 07:35:10;;;;;;;17.73;3.30;;;;;;;;;;5032342;28;20452;-72
2022/04/30 07:37:38;;;;;;;14.13;3.20;;;;;;;;;;5031982;28;20480;-71
2022/04/30 07:40:08;;;;;;;14.73;3.20;;;;;;;;;;5033029;28;20452;-71
2022/04/30 07:42:35;;;;;;;13.90;3.13;;;;;;;;;;5032556;28;20451;-71
2022/04/30 07:45:03;;;;;;;17.03;3.13;;;;;;;;;;5032725;28;20860;-71
2022/04/30 07:47:31;;;;;;;14.73;3.37;;;;;;;;;;5032117;28;20445;-71
2022/04/30 07:49:59;;;;;;;16.30;3.40;;;;;;;;;;5032527;28;20441;-71
2022/04/30 07:52:26;;;;;;;15.00;2.80;;;;;;;;;;5032412;28;20516;-71
2022/04/30 07:54:54;;;;;;;15.87;3.53;;;;;;;;;;5032178;28;20448;-71
2022/04/30 07:57:22;;;;;;;14.43;3.10;;;;;;;;;;5032289;28;20496;-71
2022/04/30 07:59:50;;;;;;;13.00;2.60;;;;;;;;;;5032118;28;20479;-72
2022/04/30 08:02:17;;;;;;;15.33;3.20;;;;;;;;;;5032056;28;20458;-71
2022/04/30 08:04:46;;;;;;;14.27;3.10;;;;;;;;;;5032512;28;20471;-71
2022/04/30 08:07:14;;;;;;;13.70;2.90;;;;;;;;;;5031760;28;20452;-71
2022/04/30 08:09:41;;;;;;;13.70;2.50;;;;;;;;;;5032060;28;20438;-71
2022/04/30 08:12:10;;;;;;;13.50;2.70;;;;;;;;;;5032063;28;20440;-71
2022/04/30 08:14:38;;;;;;;15.17;3.10;;;;;;;;;;5032120;28;20448;-71
2022/04/30 08:17:05;;;;;;;14.20;2.57;;;;;;;;;;5032034;28;20516;-71
2022/04/30 08:19:33;;;;;;;14.30;2.50;;;;;;;;;;5031762;28;20984;-72
2022/04/30 08:22:01;;;;;;;12.67;2.13;;;;;;;;;;5032092;28;20437;-72
2022/04/30 08:24:29;;;;;;;14.70;2.63;;;;;;;;;;5032084;28;20451;-71
2022/04/30 08:26:57;;;;;;;14.40;2.50;;;;;;;;;;5031948;28;20451;-71
2022/04/30 08:29:26;;;;;;;14.30;2.80;;;;;;;;;;5031801;28;20441;-71
2022/04/30 08:31:54;;;;;;;14.17;3.00;;;;;;;;;;5031890;28;20897;-71
2022/04/30 08:34:21;;;;;;;12.57;2.43;;;;;;;;;;5031649;28;20516;-71
2022/04/30 08:36:49;;;;;;;12.90;2.17;;;;;;;;;;5031976;28;20500;-71
2022/04/30 08:39:18;;;;;;;13.57;2.57;;;;;;;;;;5031720;28;20440;-72
2022/04/30 08:41:46;;;;;;;14.30;2.80;;;;;;;;;;5031883;28;20448;-72
2022/04/30 08:44:15;;;;;;;15.00;3.40;;;;;;;;;;5031646;28;20440;-71
2022/04/30 08:46:43;;;;;;;17.07;2.27;;;;;;;;;;5031743;28;20449;-71
2022/04/30 08:49:12;;;;;;;13.77;2.83;;;;;;;;;;5033181;28;20490;-71
2022/04/30 08:51:40;;;;;;;13.03;2.30;;;;;;;;;;5035625;28;20452;-72
2022/04/30 08:54:08;;;;;;;13.73;2.40;;;;;;;;;;5035694;28;20448;-71
2022/04/30 08:56:37;;;;;;;14.17;3.23;;;;;;;;;;5035708;28;20488;-71
2022/04/30 08:59:05;;;;;;;14.33;2.87;;;;;;;;;;5035407;28;20452;-72
2022/04/30 09:01:34;;;;;;;13.10;2.80;;;;;;;;;;5035283;28;20436;-71
2022/04/30 09:04:02;;;;;;;13.27;2.43;;;;;;;;;;5035611;28;20441;-71
2022/04/30 09:06:30;;;;;;;13.23;2.33;;;;;;;;;;5035724;28;20457;-71
2022/04/30 09:08:58;;;;;;;14.40;2.30;;;;;;;;;;5035565;28;20520;-71
2022/04/30 09:11:29;;;;;;;14.73;2.80;;;;;;;;;;5035388;28;20805;-71
2022/04/30 09:13:59;;;;;;;15.33;2.90;;;;;;;;;;5035243;28;20853;-71
2022/04/30 09:16:26;;;;;;;13.57;2.63;;;;;;;;;;5035886;28;20906;-71
2022/04/30 09:18:54;;;;;;;13.80;2.87;;;;;;;;;;5035527;28;20436;-71
2022/04/30 09:21:23;;;;;;;14.27;2.50;;;;;;;;;;5034985;28;20988;-71
2022/04/30 09:23:53;;;;;;;13.13;2.77;;;;;;;;;;5035146;28;20437;-71
2022/04/30 09:26:20;;;;;;;13.97;2.50;;;;;;;;;;5035054;28;20448;-71
2022/04/30 09:28:48;;;;;;;13.70;3.03;;;;;;;;;;5035287;28;21025;-71
2022/04/30 09:31:18;;;;;;;14.70;2.73;;;;;;;;;;5035136;28;20459;-72
2022/04/30 09:33:54;;;;;;;14.20;2.40;;;;;;;;;;5035153;28;21011;-71
2022/04/30 09:39:13;;;;;;;14.33;2.20;;;;;;;;;;5035012;28;21072;-72
2022/04/30 09:41:40;;;;;;;12.63;2.30;;;;;;;;;;5035203;28;20445;-72
2022/04/30 09:44:09;;;;;;;13.10;2.17;;;;;;;;;;5034726;28;20452;-71
2022/04/30 09:46:39;;;;;;;13.03;2.20;;;;;;;;;;5034871;28;20838;-72
2022/04/30 09:54:39;;;;;;;13.27;2.70;;;;;;;;;;5035234;28;20420;-72
2022/04/30 09:57:09;;;;;;;13.67;2.63;;;;;;;;;;5034722;28;20531;-71
2022/04/30 09:59:37;;;;;;;16.87;2.83;;;;;;;;;;5033607;28;20476;-72
2022/04/30 10:02:07;;;;;;;12.70;2.27;;;;;;;;;;5034326;28;20833;-71
2022/04/30 10:04:35;;;;;;;13.23;2.50;;;;;;;;;;5034541;28;20440;-71
2022/04/30 10:07:04;;;;;;;12.93;2.07;;;;;;;;;;5034370;28;20449;-71
2022/04/30 10:09:33;;;;;;;13.23;2.37;;;;;;;;;;5034192;28;20494;-72
2022/04/30 10:12:03;;;;;;;16.10;2.63;;;;;;;;;;5034439;28;21037;-72
2022/04/30 10:14:36;;;;;;;14.80;3.53;;;;;;;;;;5034150;28;20448;-72
2022/04/30 10:17:16;;;;;;;13.43;2.57;;;;;;;;;;5034252;28;20480;-71
2022/04/30 10:19:46;;;;;;;12.73;2.17;;;;;;;;;;5034182;28;20528;-72
2022/04/30 10:22:15;;;;;;;14.20;3.03;;;;;;;;;;5034234;28;20437;-72
2022/04/30 10:24:43;;;;;;;19.70;2.80;;;;;;;;;;5033906;28;20452;-72
2022/04/30 10:27:11;;;;;;;14.40;2.63;;;;;;;;;;5033946;28;20448;-72
2022/04/30 10:29:39;;;;;;;14.17;2.60;;;;;;;;;;5033883;28;20451;-71
2022/04/30 10:32:07;;;;;;;15.97;2.83;;;;;;;;;;5034025;28;20515;-72
2022/04/30 10:34:34;;;;;;;13.93;2.70;;;;;;;;;;5034036;28;20441;-72
2022/04/30 10:37:03;;;;;;;12.50;2.00;;;;;;;;;;5033890;28;20551;-71
2022/04/30 10:39:31;;;;;;;15.47;2.50;;;;;;;;;;5033680;28;20445;-72
2022/04/30 10:41:58;;;;;;;12.50;1.97;;;;;;;;;;5033721;28;20460;-71
2022/04/30 10:44:31;;;;;;;13.80;2.80;;;;;;;;;;5033648;28;20451;-72
2022/04/30 10:47:09;;;;;;;13.53;2.63;;;;;;;;;;5034092;28;20578;-72
2022/04/30 10:49:37;;;;;;;13.10;2.23;;;;;;;;;;5033921;28;20437;-71
2022/04/30 10:52:06;;;;;;;14.73;2.90;;;;;;;;;;5033879;28;20445;-71
2022/04/30 10:54:36;;;;;;;13.53;2.40;;;;;;;;;;5033548;28;20453;-71
2022/04/30 10:57:05;;;;;;;18.83;5.20;;;;;;;;;;5033755;28;20568;-71
2022/04/30 10:59:33;;;;;;;16.00;5.17;;;;;;;;;;5032816;28;21015;-71
2022/04/30 11:02:01;;;;;;;14.77;3.07;;;;;;;;;;5033312;28;20449;-71
2022/04/30 11:04:29;;;;;;;13.57;2.67;;;;;;;;;;5033228;28;20539;-71
2022/04/30 11:06:56;;;;;;;13.73;2.63;;;;;;;;;;5033161;28;20452;-71
2022/04/30 11:09:25;;;;;;;14.00;3.37;;;;;;;;;;5033448;28;20453;-71
2022/04/30 11:11:52;;;;;;;17.73;3.90;;;;;;;;;;5032236;28;20448;-71
2022/04/30 11:14:20;;;;;;;14.00;2.80;;;;;;;;;;5033225;28;20996;-70
2022/04/30 11:16:49;;;;;;;13.00;2.70;;;;;;;;;;5032988;28;20542;-72
2022/04/30 11:19:17;;;;;;;13.10;2.33;;;;;;;;;;5033160;28;20449;-71
2022/04/30 11:21:47;;;;;;;15.90;2.60;;;;;;;;;;5033116;28;20448;-70
2022/04/30 11:24:23;;;;;;;13.53;2.80;;;;;;;;;;5033136;28;20474;-71
2022/04/30 11:26:55;;;;;;;14.87;3.43;;;;;;;;;;5032870;28;20946;-70
2022/04/30 11:29:23;;;;;;;14.60;2.53;;;;;;;;;;5033037;28;20448;-70
2022/04/30 11:31:52;;;;;;;14.60;2.60;;;;;;;;;;5033107;28;20441;-70
2022/04/30 11:34:19;;;;;;;12.60;2.23;;;;;;;;;;5033087;28;20441;-70
2022/04/30 11:36:48;;;;;;;16.00;2.73;;;;;;;;;;5032371;28;20492;-71
2022/04/30 11:39:16;;;;;;;14.40;2.47;;;;;;;;;;5032771;28;20444;-70
2022/04/30 11:41:44;;;;;;;13.33;2.20;;;;;;;;;;5032576;28;20529;-70
2022/04/30 11:44:14;;;;;;;15.00;2.80;;;;;;;;;;5032535;28;20968;-70
2022/04/30 11:46:41;;;;;;;13.30;2.43;;;;;;;;;;5032795;28;20486;-70
2022/04/30 11:49:10;;;;;;;12.47;2.30;;;;;;;;;;5032705;28;20473;-71
2022/04/30 11:51:38;;;;;;;15.03;2.40;;;;;;;;;;5032915;28;20437;-70
2022/04/30 11:54:09;;;;;;;13.80;2.80;;;;;;;;;;5032369;28;20452;-70
2022/04/30 11:56:37;;;;;;;13.47;2.40;;;;;;;;;;5032348;28;20550;-70
2022/04/30 11:59:05;;;;;;;14.27;3.00;;;;;;;;;;5032213;28;20492;-71
2022/04/30 12:01:35;;;;;;;13.53;2.63;;;;;;;;;;5032123;28;20440;-70
2022/04/30 12:04:05;;;;;;;14.53;2.83;;;;;;;;;;5032573;28;20439;-71
2022/04/30 12:06:33;;;;;;;25.00;3.10;;;;;;;;;;5032421;28;20502;-71
2022/04/30 12:09:01;;;;;;;14.67;2.70;;;;;;;;;;5032157;28;20476;-71
2022/04/30 12:11:29;;;;;;;15.13;3.00;;;;;;;;;;5031824;28;20818;-71
2022/04/30 12:14:00;;;;;;;14.93;2.70;;;;;;;;;;5032286;28;20440;-71
2022/04/30 12:16:34;;;;;;;14.60;2.37;;;;;;;;;;5032224;28;20432;-71
2022/04/30 12:24:49;;;;;;;18.90;2.53;;;;;;;;;;5032145;28;20428;-70
2022/04/30 12:27:24;;;;;;;14.37;2.73;;;;;;;;;;5031896;28;20968;-72
2022/04/30 12:30:00;;;;;;;13.10;2.80;;;;;;;;;;5031753;28;20506;-70
2022/04/30 12:32:28;;;;;;;14.00;2.40;;;;;;;;;;5031880;28;20448;-71
2022/04/30 12:34:57;;;;;;;13.53;2.60;;;;;;;;;;5031907;28;20942;-71
2022/04/30 12:37:32;;;;;;;14.30;2.57;;;;;;;;;;5031541;28;20841;-71
2022/04/30 12:40:00;;;;;;;14.47;2.47;;;;;;;;;;5032140;28;20464;-71
2022/04/30 12:42:28;;;;;;;14.30;2.53;;;;;;;;;;5031688;28;20973;-73
2022/04/30 12:44:55;;;;;;;12.60;2.17;;;;;;;;;;5031708;28;20449;-71
2022/04/30 12:47:22;;;;;;;14.20;2.70;;;;;;;;;;5031768;28;20965;-71
2022/04/30 12:49:50;;;;;;;14.10;2.47;;;;;;;;;;5031998;28;20444;-71
2022/04/30 12:52:19;;;;;;;13.20;2.60;;;;;;;;;;5031795;28;20966;-71
2022/04/30 12:54:46;;;;;;;29.87;3.40;;;;;;;;;;5031575;28;20895;-71
2022/04/30 12:57:14;;;;;;;12.60;2.10;;;;;;;;;;5032047;28;20849;-71
2022/04/30 12:59:42;;;;;;;12.80;2.20;;;;;;;;;;5031391;28;20473;-71
2022/04/30 13:02:10;;;;;;;12.90;2.23;;;;;;;;;;5031494;28;20533;-71
2022/04/30 13:04:37;;;;;;;13.57;2.70;;;;;;;;;;5031599;28;20987;-71
2022/04/30 13:07:06;;;;;;;13.97;2.60;;;;;;;;;;5031639;28;20440;-71
2022/04/30 13:15:06;;;;;;;15.50;2.83;;;;;;;;;;5031579;28;20530;-71
2022/04/30 13:17:33;;;;;;;14.97;2.73;;;;;;;;;;5031141;28;20484;-71
2022/04/30 13:20:00;;;;;;;13.20;2.40;;;;;;;;;;5031436;28;20455;-71
2022/04/30 13:22:28;;;;;;;17.53;3.00;;;;;;;;;;5031658;28;20451;-71
2022/04/30 13:24:57;;;;;;;14.10;2.80;;;;;;;;;;5031342;28;20460;-71
2022/04/30 13:27:25;;;;;;;13.10;2.60;;;;;;;;;;5031166;28;20452;-71
2022/04/30 13:29:53;;;;;;;16.10;2.40;;;;;;;;;;5031259;28;20468;-71
2022/04/30 13:32:20;;;;;;;13.10;2.10;;;;;;;;;;5031255;28;20447;-71
2022/04/30 13:34:48;;;;;;;13.37;2.40;;;;;;;;;;5032262;28;20998;-71
2022/04/30 13:37:15;;;;;;;15.10;2.83;;;;;;;;;;5034774;28;20492;-71
2022/04/30 13:39:43;;;;;;;14.33;2.53;;;;;;;;;;5034932;28;20452;-72
2022/04/30 13:42:11;;;;;;;12.90;2.30;;;;;;;;;;5035060;28;20820;-71
2022/04/30 13:44:39;;;;;;;15.50;3.20;;;;;;;;;;5034693;28;20441;-71
2022/04/30 13:47:07;;;;;;;14.63;2.50;;;;;;;;;;5034452;28;20455;-70
2022/04/30 13:49:35;;;;;;;14.17;2.87;;;;;;;;;;5035256;28;20453;-71
2022/04/30 13:52:03;;;;;;;15.03;3.00;;;;;;;;;;5034638;28;20507;-71
2022/04/30 13:54:30;;;;;;;13.53;2.60;;;;;;;;;;5034533;28;20437;-72
2022/04/30 13:56:57;;;;;;;15.30;2.67;;;;;;;;;;5034464;28;20440;-71
2022/04/30 13:59:33;;;;;;;15.37;3.07;;;;;;;;;;5034002;28;20499;-72
2022/04/30 14:02:01;;;;;;;13.90;3.20;;;;;;;;;;5034817;28;20447;-71
2022/04/30 14:04:32;;;;;;;13.57;2.97;;;;;;;;;;5034562;28;20441;-71
2022/04/30 14:07:00;;;;;;;13.33;3.10;;;;;;;;;;5034333;28;20448;-71
2022/04/30 14:09:27;;;;;;;13.33;2.80;;;;;;;;;;5034232;28;20484;-71
2022/04/30 14:11:55;;;;;;;13.97;3.00;;;;;;;;;;5034430;28;20445;-72
2022/04/30 14:19:50;;;;;;;15.83;3.10;;;;;;;;;;5034269;28;20432;-71
2022/04/30 14:22:19;;;;;;;13.47;2.30;;;;;;;;;;5034089;28;20449;-72
2022/04/30 14:24:47;;;;;;;15.17;2.40;;;;;;;;;;5034225;28;20455;-72
2022/04/30 14:27:14;;;;;;;14.20;3.03;;;;;;;;;;5034055;28;20519;-71
2022/04/30 14:29:42;;;;;;;14.20;2.90;;;;;;;;;;5034158;28;20464;-72
2022/04/30 14:32:12;;;;;;;15.80;3.00;;;;;;;;;;5034099;28;20448;-72
2022/04/30 14:34:41;;;;;;;15.37;3.13;;;;;;;;;;5034075;28;20444;-72
2022/04/30 14:37:08;;;;;;;12.50;2.27;;;;;;;;;;5033751;28;20575;-72
2022/04/30 14:39:36;;;;;;;14.53;3.27;;;;;;;;;;5033642;28;20455;-72
2022/04/30 14:42:04;;;;;;;14.47;3.20;;;;;;;;;;5034022;28;20456;-72
2022/04/30 14:44:31;;;;;;;14.80;3.10;;;;;;;;;;5033761;28;20453;-71
2022/04/30 14:46:59;;;;;;;18.33;3.40;;;;;;;;;;5033609;28;20464;-71
2022/04/30 14:49:29;;;;;;;15.43;3.00;;;;;;;;;;5033246;28;20448;-72
2022/04/30 14:51:57;;;;;;;13.03;2.53;;;;;;;;;;5034456;28;20440;-71
2022/04/30 14:54:24;;;;;;;13.20;2.77;;;;;;;;;;5033716;28;20441;-72
2022/04/30 14:56:52;;;;;;;15.97;2.50;;;;;;;;;;5033845;28;20449;-71
2022/04/30 14:59:19;;;;;;;13.97;3.27;;;;;;;;;;5032824;28;20492;-72
2022/04/30 15:01:47;;;;;;;16.00;3.67;;;;;;;;;;5033448;28;20519;-72
2022/04/30 15:04:14;;;;;;;13.70;2.83;;;;;;;;;;5033262;28;20436;-72
2022/04/30 15:06:44;;;;;;;13.97;2.90;;;;;;;;;;5033184;28;20452;-71
2022/04/30 15:09:12;;;;;;;14.50;2.67;;;;;;;;;;5032910;28;20457;-72
2022/04/30 15:11:39;;;;;;;13.23;2.40;;;;;;;;;;5033117;28;20440;-71
2022/04/30 15:14:07;;;;;;;13.23;2.63;;;;;;;;;;5033226;28;20448;-72
2022/04/30 15:16:34;;;;;;;13.83;2.43;;;;;;;;;;5033162;28;20467;-72
2022/04/30 15:19:02;;;;;;;16.43;2.93;;;;;;;;;;5033220;28;20516;-71
2022/04/30 15:21:31;;;;;;;14.20;2.50;;;;;;;;;;5032735;28;20447;-71
2022/04/30 15:24:00;;;;;;;14.37;3.10;;;;;;;;;;5032892;28;20495;-71
2022/04/30 15:26:28;;;;;;;16.17;5.97;;;;;;;;;;5032968;28;20496;-71
2022/04/30 15:28:57;;;;;;;16.60;2.67;;;;;;;;;;5032755;28;20447;-73
2022/04/30 15:31:24;;;;;;;13.80;2.20;;;;;;;;;;5032545;28;20850;-72
2022/04/30 15:33:52;;;;;;;13.50;2.53;;;;;;;;;;5032703;28;20449;-72